LVJAM SAEZ-SABE
Flight info
| Callsign | LVJAM |
|---|---|
| Flight time | 0h 14m |
| Altitude | 5000 |
| Route | DCT TRINI |
| Aircraft | BE58/L-SDE3L/L |
Departure
| Time | 2026-05-06 23:19 |
|---|---|
| Airport | Ezeiza International Airport - Ministro Pistarini (SAEZ) |
Arrival
| Time | 2026-05-06 23:33 |
|---|---|
| Airport | Aeroparque Jorge Newbery (SABE) |
| Time | Latitude | Longitude | Altitude | Speed | Heading |
|---|---|---|---|---|---|
| 2026-05-06 23:10 | -34.81608 | -58.53989 | 69 ft | 0 kts | 317° |
| 2026-05-06 23:13 | -34.81605 | -58.53981 | 69 ft | 4 kts | 155° |
| 2026-05-06 23:13 | -34.81701 | -58.53949 | 69 ft | 23 kts | 180° |
| 2026-05-06 23:14 | -34.81781 | -58.54032 | 69 ft | 11 kts | 252° |
| 2026-05-06 23:14 | -34.81792 | -58.54074 | 69 ft | 0 kts | 252° |
| 2026-05-06 23:14 | -34.81794 | -58.54080 | 69 ft | 5 kts | 256° |
| 2026-05-06 23:14 | -34.81783 | -58.54213 | 69 ft | 24 kts | 278° |
| 2026-05-06 23:15 | -34.81755 | -58.54474 | 69 ft | 37 kts | 274° |
| 2026-05-06 23:15 | -34.81773 | -58.54816 | 69 ft | 44 kts | 281° |
| 2026-05-06 23:15 | -34.81704 | -58.55175 | 69 ft | 40 kts | 282° |
| 2026-05-06 23:15 | -34.81733 | -58.55340 | 69 ft | 15 kts | 197° |
| 2026-05-06 23:16 | -34.81817 | -58.55333 | 69 ft | 14 kts | 156° |
| 2026-05-06 23:16 | -34.81911 | -58.55271 | 69 ft | 11 kts | 117° |
| 2026-05-06 23:16 | -34.81925 | -58.55226 | 69 ft | 0 kts | 104° |
| 2026-05-06 23:16 | -34.81837 | -58.55268 | 69 ft | 7 kts | 104° |
| 2026-05-06 23:17 | -34.81819 | -58.55326 | 69 ft | 0 kts | 149° |
| 2026-05-06 23:17 | -34.81847 | -58.55306 | 69 ft | 13 kts | 145° |
| 2026-05-06 23:17 | -34.81958 | -58.54996 | 69 ft | 74 kts | 103° |
| 2026-05-06 23:18 | -34.82106 | -58.54178 | 73 ft | 119 kts | 101° |
| 2026-05-06 23:18 | -34.82272 | -58.53111 | 162 ft | 135 kts | 100° |
| 2026-05-06 23:18 | -34.82441 | -58.51971 | 394 ft | 141 kts | 100° |
| 2026-05-06 23:18 | -34.82595 | -58.50762 | 568 ft | 146 kts | 92° |
| 2026-05-06 23:19 | -34.82278 | -58.49626 | 775 ft | 144 kts | 58° |
| 2026-05-06 23:19 | -34.81516 | -58.48841 | 1059 ft | 149 kts | 25° |
| 2026-05-06 23:19 | -34.80505 | -58.48456 | 1346 ft | 156 kts | 1° |
| 2026-05-06 23:19 | -34.79494 | -58.48903 | 1638 ft | 161 kts | 322° |
| 2026-05-06 23:20 | -34.78691 | -58.49869 | 1936 ft | 164 kts | 311° |
| 2026-05-06 23:20 | -34.77952 | -58.50947 | 2248 ft | 165 kts | 309° |
| 2026-05-06 23:20 | -34.77211 | -58.52065 | 2507 ft | 176 kts | 309° |
| 2026-05-06 23:20 | -34.76454 | -58.53210 | 2780 ft | 171 kts | 309° |
| 2026-05-06 23:21 | -34.75712 | -58.54335 | 3051 ft | 169 kts | 309° |
| 2026-05-06 23:21 | -34.74980 | -58.55446 | 3324 ft | 167 kts | 309° |
| 2026-05-06 23:21 | -34.74262 | -58.56536 | 3596 ft | 165 kts | 309° |
| 2026-05-06 23:21 | -34.73548 | -58.57624 | 3871 ft | 163 kts | 309° |
| 2026-05-06 23:22 | -34.72856 | -58.58685 | 4143 ft | 160 kts | 309° |
| 2026-05-06 23:22 | -34.72169 | -58.59742 | 4416 ft | 158 kts | 309° |
| 2026-05-06 23:22 | -34.71491 | -58.60783 | 4691 ft | 155 kts | 309° |
| 2026-05-06 23:22 | -34.70829 | -58.61796 | 4963 ft | 152 kts | 309° |
| 2026-05-06 23:23 | -34.70168 | -58.62793 | 5237 ft | 149 kts | 309° |
| 2026-05-06 23:23 | -34.69519 | -58.63756 | 5509 ft | 145 kts | 309° |
| 2026-05-06 23:23 | -34.68883 | -58.64674 | 5778 ft | 141 kts | 308° |
| 2026-05-06 23:23 | -34.68249 | -58.65561 | 6031 ft | 138 kts | 308° |
| 2026-05-06 23:24 | -34.67818 | -58.66149 | 6129 ft | 141 kts | 309° |
| 2026-05-06 23:24 | -34.67148 | -58.67046 | 6215 ft | 148 kts | 309° |
| 2026-05-06 23:24 | -34.66435 | -58.67995 | 6233 ft | 155 kts | 309° |
| 2026-05-06 23:24 | -34.65679 | -58.68956 | 6231 ft | 163 kts | 316° |
| 2026-05-06 23:25 | -34.64570 | -58.69413 | 6131 ft | 181 kts | 355° |
| 2026-05-06 23:25 | -34.63323 | -58.68931 | 5990 ft | 195 kts | 24° |
| 2026-05-06 23:25 | -34.62164 | -58.68048 | 5831 ft | 201 kts | 30° |
| 2026-05-06 23:25 | -34.60968 | -58.67149 | 5665 ft | 202 kts | 25° |
| 2026-05-06 23:26 | -34.59733 | -58.66367 | 5520 ft | 201 kts | 23° |
| 2026-05-06 23:26 | -34.58478 | -58.65612 | 5439 ft | 198 kts | 22° |
| 2026-05-06 23:26 | -34.57237 | -58.64878 | 5445 ft | 200 kts | 22° |
| 2026-05-06 23:26 | -34.55987 | -58.64144 | 5379 ft | 199 kts | 22° |
| 2026-05-06 23:27 | -34.54755 | -58.63418 | 5407 ft | 193 kts | 22° |
| 2026-05-06 23:27 | -34.53586 | -58.62728 | 5412 ft | 190 kts | 22° |
| 2026-05-06 23:27 | -34.52447 | -58.61896 | 5419 ft | 191 kts | 32° |
| 2026-05-06 23:27 | -34.51341 | -58.61042 | 5405 ft | 190 kts | 26° |
| 2026-05-06 23:28 | -34.50249 | -58.60160 | 5294 ft | 179 kts | 39° |
| 2026-05-06 23:28 | -34.49581 | -58.58982 | 5234 ft | 161 kts | 67° |
| 2026-05-06 23:28 | -34.49587 | -58.57617 | 4679 ft | 171 kts | 103° |
| 2026-05-06 23:28 | -34.49824 | -58.56212 | 4199 ft | 165 kts | 95° |
| 2026-05-06 23:29 | -34.49883 | -58.54841 | 3743 ft | 160 kts | 90° |
| 2026-05-06 23:29 | -34.49998 | -58.53563 | 3444 ft | 148 kts | 98° |
| 2026-05-06 23:29 | -34.50174 | -58.52355 | 3083 ft | 143 kts | 102° |
| 2026-05-06 23:29 | -34.50455 | -58.51256 | 2861 ft | 129 kts | 112° |
| 2026-05-06 23:30 | -34.50825 | -58.50346 | 2519 ft | 115 kts | 118° |
| 2026-05-06 23:30 | -34.51215 | -58.49523 | 2148 ft | 109 kts | 121° |
| 2026-05-06 23:30 | -34.51599 | -58.48772 | 1837 ft | 103 kts | 123° |
| 2026-05-06 23:30 | -34.51998 | -58.48073 | 1565 ft | 100 kts | 126° |
| 2026-05-06 23:31 | -34.52416 | -58.47400 | 1317 ft | 97 kts | 128° |
| 2026-05-06 23:31 | -34.52820 | -58.46780 | 1107 ft | 94 kts | 128° |
| 2026-05-06 23:31 | -34.53239 | -58.46144 | 890 ft | 98 kts | 129° |
| 2026-05-06 23:31 | -34.53659 | -58.45520 | 823 ft | 94 kts | 129° |
| 2026-05-06 23:32 | -34.54070 | -58.44888 | 719 ft | 96 kts | 125° |
| 2026-05-06 23:32 | -34.54434 | -58.44233 | 592 ft | 94 kts | 123° |
| 2026-05-06 23:32 | -34.54805 | -58.43551 | 380 ft | 98 kts | 124° |
| 2026-05-06 23:32 | -34.55175 | -58.42891 | 147 ft | 92 kts | 124° |
| 2026-05-06 23:33 | -34.55515 | -58.42289 | 21 ft | 75 kts | 124° |
| 2026-05-06 23:33 | -34.55702 | -58.41954 | 21 ft | 39 kts | 123° |
| 2026-05-06 23:33 | -34.55849 | -58.41682 | 21 ft | 40 kts | 124° |
| 2026-05-06 23:33 | -34.55996 | -58.41421 | 21 ft | 32 kts | 124° |
| 2026-05-06 23:34 | -34.56057 | -58.41395 | 21 ft | 20 kts | 218° |
| 2026-05-06 23:34 | -34.56206 | -58.41463 | 21 ft | 7 kts | 124° |
| 2026-05-06 23:34 | -34.56279 | -58.41305 | 21 ft | 45 kts | 121° |
| 2026-05-06 23:34 | -34.56432 | -58.41024 | 21 ft | 24 kts | 123° |
| 2026-05-06 23:35 | -34.56488 | -58.40910 | 21 ft | 2 kts | 69° |
| 2026-05-06 23:35 | -34.56469 | -58.40898 | 21 ft | 0 kts | 25° |